RYR2851 LICC-LFOB
Flight info
| Callsign | RYR2851 |
|---|---|
| Flight time | N/A |
| Altitude | 38000 |
| Route | BUDIN DCT NERAR DCT TAGEL DCT LUNAK DCT KARDU DCT IDONA DCT TONDA DCT PIMOT DCT AOSTA DCT ORSUD DCT MOLUS DCT UNKIR DCT GIVRI DCT TINIL |
| Aircraft | B738/M-SDE2E3FGHIRWXY/LB1 |
Departure
| Time | N/A |
|---|---|
| Airport | Catania-Fontanarossa Airport (LICC) |
Arrival
| Time | 2026-05-08 10:15 |
|---|---|
| Airport | Beauvais-Tillé airport (LFOB) |
| Time | Latitude | Longitude | Altitude | Speed | Heading |
|---|---|---|---|---|---|
| 2026-05-08 08:24 | 40.79263 | 12.81324 | 37941 ft | 426 kts | 317° |
| 2026-05-08 08:24 | 40.83943 | 12.76563 | 37946 ft | 426 kts | 317° |
| 2026-05-08 08:25 | 40.88615 | 12.71802 | 37950 ft | 426 kts | 317° |
| 2026-05-08 08:25 | 40.93308 | 12.67010 | 37946 ft | 426 kts | 317° |
| 2026-05-08 08:26 | 40.97997 | 12.62213 | 37943 ft | 426 kts | 317° |
| 2026-05-08 08:26 | 41.02669 | 12.57425 | 37943 ft | 426 kts | 317° |
| 2026-05-08 08:27 | 41.07366 | 12.52602 | 37944 ft | 426 kts | 317° |
| 2026-05-08 08:27 | 41.12044 | 12.47790 | 37945 ft | 427 kts | 317° |
| 2026-05-08 08:28 | 41.16703 | 12.42989 | 37947 ft | 427 kts | 318° |
| 2026-05-08 08:28 | 41.21406 | 12.38133 | 37951 ft | 427 kts | 318° |
| 2026-05-08 08:29 | 41.26107 | 12.33270 | 37956 ft | 427 kts | 317° |
| 2026-05-08 08:29 | 41.30793 | 12.28414 | 37961 ft | 427 kts | 317° |
| 2026-05-08 08:30 | 41.35482 | 12.23545 | 37965 ft | 428 kts | 317° |
| 2026-05-08 08:30 | 41.42508 | 12.16233 | 37965 ft | 429 kts | 317° |
| 2026-05-08 08:31 | 41.47203 | 12.11335 | 37967 ft | 429 kts | 318° |
| 2026-05-08 08:31 | 41.51880 | 12.06447 | 37971 ft | 430 kts | 318° |
| 2026-05-08 08:32 | 41.56584 | 12.01522 | 37964 ft | 430 kts | 318° |
| 2026-05-08 08:32 | 41.61296 | 11.96579 | 37953 ft | 430 kts | 318° |
| 2026-05-08 08:33 | 41.65981 | 11.91656 | 37945 ft | 430 kts | 318° |
| 2026-05-08 08:33 | 41.70655 | 11.86734 | 37945 ft | 430 kts | 318° |
| 2026-05-08 08:34 | 41.75384 | 11.81795 | 37947 ft | 430 kts | 319° |
| 2026-05-08 08:34 | 41.80095 | 11.76904 | 37950 ft | 430 kts | 319° |
| 2026-05-08 08:35 | 41.84808 | 11.72002 | 37949 ft | 430 kts | 319° |
| 2026-05-08 08:35 | 41.89541 | 11.67065 | 37946 ft | 430 kts | 319° |
| 2026-05-08 08:36 | 41.94276 | 11.62110 | 37945 ft | 438 kts | 319° |
| 2026-05-08 08:36 | 41.99099 | 11.57051 | 37945 ft | 441 kts | 319° |
| 2026-05-08 08:37 | 42.03908 | 11.52002 | 37946 ft | 438 kts | 319° |
| 2026-05-08 08:37 | 42.08683 | 11.46978 | 37948 ft | 438 kts | 319° |
| 2026-05-08 08:38 | 42.13501 | 11.41896 | 37960 ft | 439 kts | 319° |
| 2026-05-08 08:38 | 42.18300 | 11.36824 | 37962 ft | 440 kts | 319° |
| 2026-05-08 08:39 | 42.23103 | 11.31737 | 37953 ft | 440 kts | 318° |
| 2026-05-08 08:39 | 42.27916 | 11.26631 | 37952 ft | 440 kts | 318° |
| 2026-05-08 08:40 | 42.32705 | 11.21539 | 37935 ft | 440 kts | 318° |
| 2026-05-08 08:40 | 42.37510 | 11.16420 | 37909 ft | 440 kts | 318° |
| 2026-05-08 08:41 | 42.42311 | 11.11296 | 37903 ft | 440 kts | 318° |
| 2026-05-08 08:41 | 42.47129 | 11.06142 | 37910 ft | 441 kts | 318° |
| 2026-05-08 08:42 | 42.51949 | 11.00976 | 37907 ft | 441 kts | 318° |
| 2026-05-08 08:42 | 42.56736 | 10.95836 | 37897 ft | 441 kts | 318° |
| 2026-05-08 08:43 | 42.61529 | 10.90678 | 37904 ft | 441 kts | 317° |
| 2026-05-08 08:43 | 42.66337 | 10.85494 | 37920 ft | 442 kts | 317° |
| 2026-05-08 08:44 | 42.71140 | 10.80304 | 37933 ft | 442 kts | 317° |
| 2026-05-08 08:44 | 42.75921 | 10.75128 | 37941 ft | 442 kts | 317° |
| 2026-05-08 08:45 | 42.80728 | 10.69914 | 37947 ft | 442 kts | 317° |
| 2026-05-08 08:45 | 42.85531 | 10.64692 | 37951 ft | 442 kts | 317° |
| 2026-05-08 08:46 | 42.90313 | 10.59484 | 37953 ft | 442 kts | 317° |
| 2026-05-08 08:46 | 42.95113 | 10.54245 | 37953 ft | 442 kts | 317° |
| 2026-05-08 08:47 | 42.99927 | 10.49002 | 37954 ft | 443 kts | 318° |
| 2026-05-08 08:47 | 43.04793 | 10.43852 | 37955 ft | 443 kts | 319° |
| 2026-05-08 08:48 | 43.09699 | 10.38706 | 37955 ft | 443 kts | 319° |
| 2026-05-08 08:48 | 43.14588 | 10.33563 | 37955 ft | 443 kts | 318° |
| 2026-05-08 08:49 | 43.19429 | 10.28447 | 37955 ft | 442 kts | 317° |
| 2026-05-08 08:49 | 43.24303 | 10.23276 | 37956 ft | 443 kts | 317° |
| 2026-05-08 08:50 | 43.29173 | 10.18096 | 37956 ft | 443 kts | 317° |
| 2026-05-08 08:50 | 43.34013 | 10.12934 | 37957 ft | 443 kts | 317° |
| 2026-05-08 08:51 | 43.38868 | 10.07746 | 37961 ft | 443 kts | 317° |
| 2026-05-08 08:51 | 43.43721 | 10.02548 | 37968 ft | 444 kts | 317° |
| 2026-05-08 08:52 | 43.48602 | 9.97310 | 37969 ft | 444 kts | 317° |
| 2026-05-08 08:52 | 43.53443 | 9.92103 | 37969 ft | 443 kts | 317° |
| 2026-05-08 08:53 | 43.58279 | 9.86892 | 37966 ft | 443 kts | 317° |
| 2026-05-08 08:53 | 43.63153 | 9.81629 | 37968 ft | 443 kts | 317° |
| 2026-05-08 08:54 | 43.67972 | 9.76413 | 37974 ft | 443 kts | 317° |
| 2026-05-08 08:54 | 43.72823 | 9.71152 | 37975 ft | 444 kts | 317° |
| 2026-05-08 08:55 | 43.77660 | 9.65895 | 37970 ft | 444 kts | 317° |
| 2026-05-08 08:55 | 43.82498 | 9.60626 | 37964 ft | 444 kts | 317° |
| 2026-05-08 08:56 | 43.87328 | 9.55355 | 37961 ft | 443 kts | 317° |
| 2026-05-08 08:56 | 43.92182 | 9.50046 | 37961 ft | 443 kts | 317° |
| 2026-05-08 08:57 | 43.97007 | 9.44757 | 37961 ft | 443 kts | 317° |
| 2026-05-08 08:57 | 44.01859 | 9.39508 | 37962 ft | 444 kts | 318° |
| 2026-05-08 08:58 | 44.06779 | 9.34370 | 37965 ft | 444 kts | 318° |
| 2026-05-08 08:58 | 44.11704 | 9.29259 | 37966 ft | 439 kts | 318° |
| 2026-05-08 08:59 | 44.16553 | 9.24211 | 37973 ft | 432 kts | 318° |
| 2026-05-08 08:59 | 44.21375 | 9.19153 | 37979 ft | 436 kts | 317° |
| 2026-05-08 09:00 | 44.26176 | 9.14095 | 37985 ft | 435 kts | 317° |
| 2026-05-08 09:00 | 44.30986 | 9.09016 | 37999 ft | 435 kts | 317° |
| 2026-05-08 09:01 | 44.35815 | 9.03906 | 38010 ft | 435 kts | 317° |
| 2026-05-08 09:01 | 44.40597 | 8.98835 | 38020 ft | 434 kts | 317° |
| 2026-05-08 09:02 | 44.45416 | 8.93714 | 38026 ft | 434 kts | 317° |
| 2026-05-08 09:02 | 44.50232 | 8.88584 | 37947 ft | 434 kts | 317° |
| 2026-05-08 09:03 | 44.54979 | 8.83520 | 37978 ft | 432 kts | 317° |
| 2026-05-08 09:03 | 44.59777 | 8.78386 | 38020 ft | 435 kts | 317° |
| 2026-05-08 09:04 | 44.64590 | 8.73227 | 38009 ft | 434 kts | 317° |
| 2026-05-08 09:04 | 44.69378 | 8.68086 | 38001 ft | 433 kts | 317° |
| 2026-05-08 09:05 | 44.74162 | 8.62937 | 37992 ft | 434 kts | 317° |
| 2026-05-08 09:05 | 44.78917 | 8.57807 | 37983 ft | 434 kts | 317° |
| 2026-05-08 09:06 | 44.83716 | 8.52620 | 37989 ft | 433 kts | 317° |
| 2026-05-08 09:06 | 44.88484 | 8.47454 | 38000 ft | 434 kts | 317° |
| 2026-05-08 09:07 | 44.93238 | 8.42293 | 38012 ft | 433 kts | 317° |
| 2026-05-08 09:07 | 44.98030 | 8.37081 | 38024 ft | 433 kts | 317° |
| 2026-05-08 09:08 | 45.02788 | 8.31894 | 38030 ft | 431 kts | 317° |
| 2026-05-08 09:08 | 45.07525 | 8.26721 | 38044 ft | 430 kts | 317° |
| 2026-05-08 09:09 | 45.12135 | 8.21629 | 38059 ft | 429 kts | 315° |
| 2026-05-08 09:09 | 45.16603 | 8.16075 | 38065 ft | 427 kts | 312° |
| 2026-05-08 09:10 | 45.20919 | 8.10404 | 38069 ft | 426 kts | 312° |
| 2026-05-08 09:10 | 45.25283 | 8.04674 | 38072 ft | 426 kts | 313° |
| 2026-05-08 09:11 | 45.29636 | 7.99007 | 38077 ft | 426 kts | 313° |
| 2026-05-08 09:11 | 45.33989 | 7.93363 | 38082 ft | 426 kts | 313° |
| 2026-05-08 09:12 | 45.38387 | 7.87666 | 38085 ft | 426 kts | 313° |
| 2026-05-08 09:12 | 45.42753 | 7.82003 | 38096 ft | 425 kts | 313° |
| 2026-05-08 09:13 | 45.47094 | 7.76360 | 38111 ft | 426 kts | 313° |
| 2026-05-08 09:13 | 45.51483 | 7.70651 | 38127 ft | 426 kts | 313° |
| 2026-05-08 09:14 | 45.55884 | 7.65018 | 38152 ft | 426 kts | 314° |
| 2026-05-08 09:14 | 45.60291 | 7.59415 | 38169 ft | 426 kts | 314° |
| 2026-05-08 09:15 | 45.64722 | 7.53768 | 38156 ft | 426 kts | 314° |
| 2026-05-08 09:15 | 45.69129 | 7.48132 | 38132 ft | 425 kts | 314° |
| 2026-05-08 09:16 | 45.73529 | 7.42485 | 38133 ft | 426 kts | 314° |
| 2026-05-08 09:16 | 45.77924 | 7.36827 | 37984 ft | 429 kts | 314° |
| 2026-05-08 09:17 | 45.80181 | 7.34025 | 37823 ft | 429 kts | 316° |
| 2026-05-08 09:17 | 45.82541 | 7.31407 | 37655 ft | 429 kts | 319° |
| 2026-05-08 09:17 | 45.84956 | 7.28911 | 37482 ft | 429 kts | 320° |
| 2026-05-08 09:17 | 45.87412 | 7.26451 | 37303 ft | 429 kts | 320° |
| 2026-05-08 09:18 | 45.89855 | 7.24025 | 37136 ft | 428 kts | 320° |
| 2026-05-08 09:18 | 45.92312 | 7.21581 | 36960 ft | 428 kts | 320° |
| 2026-05-08 09:18 | 45.94739 | 7.19156 | 36776 ft | 427 kts | 320° |
| 2026-05-08 09:18 | 45.97194 | 7.16686 | 36580 ft | 427 kts | 320° |
| 2026-05-08 09:19 | 45.99607 | 7.14244 | 36379 ft | 427 kts | 320° |
| 2026-05-08 09:19 | 46.02035 | 7.11774 | 36166 ft | 428 kts | 320° |
| 2026-05-08 09:19 | 46.06858 | 7.06844 | 36135 ft | 425 kts | 319° |
| 2026-05-08 09:20 | 46.11695 | 7.01873 | 36347 ft | 429 kts | 319° |
| 2026-05-08 09:20 | 46.14123 | 6.99373 | 36590 ft | 427 kts | 319° |
| 2026-05-08 09:20 | 46.16530 | 6.96894 | 36821 ft | 425 kts | 319° |
| 2026-05-08 09:21 | 46.18934 | 6.94414 | 37007 ft | 424 kts | 319° |
| 2026-05-08 09:21 | 46.21318 | 6.91952 | 37183 ft | 423 kts | 320° |
| 2026-05-08 09:22 | 46.35559 | 6.77181 | 38007 ft | 420 kts | 320° |
| 2026-05-08 09:23 | 46.37955 | 6.74685 | 38038 ft | 423 kts | 320° |
| 2026-05-08 09:23 | 46.42622 | 6.69512 | 38077 ft | 426 kts | 314° |
| 2026-05-08 09:24 | 46.46417 | 6.62992 | 38069 ft | 423 kts | 300° |
| 2026-05-08 09:24 | 46.49426 | 6.55752 | 38052 ft | 418 kts | 296° |
| 2026-05-08 09:25 | 46.52260 | 6.48395 | 38049 ft | 418 kts | 296° |
| 2026-05-08 09:25 | 46.55093 | 6.41028 | 38059 ft | 419 kts | 296° |
| 2026-05-08 09:26 | 46.57946 | 6.33671 | 38075 ft | 419 kts | 296° |
| 2026-05-08 09:26 | 46.60823 | 6.26290 | 38093 ft | 419 kts | 296° |
| 2026-05-08 09:27 | 46.63685 | 6.18953 | 38100 ft | 420 kts | 296° |
| 2026-05-08 09:27 | 46.66567 | 6.11549 | 38088 ft | 420 kts | 296° |
| 2026-05-08 09:28 | 46.69416 | 6.04214 | 38076 ft | 419 kts | 296° |
| 2026-05-08 09:28 | 46.72281 | 5.96819 | 38064 ft | 420 kts | 296° |
| 2026-05-08 09:29 | 46.75139 | 5.89421 | 38047 ft | 419 kts | 296° |
| 2026-05-08 09:29 | 46.78000 | 5.81995 | 38037 ft | 419 kts | 296° |
| 2026-05-08 09:30 | 46.81103 | 5.74838 | 38070 ft | 422 kts | 306° |
| 2026-05-08 09:30 | 46.83168 | 5.71804 | 38138 ft | 427 kts | 318° |
| 2026-05-08 09:30 | 46.85580 | 5.69296 | 38205 ft | 432 kts | 324° |
| 2026-05-08 09:31 | 46.90800 | 5.64875 | 38248 ft | 437 kts | 328° |
| 2026-05-08 09:31 | 46.96144 | 5.60643 | 38125 ft | 433 kts | 328° |
| 2026-05-08 09:32 | 47.01420 | 5.56465 | 38000 ft | 431 kts | 328° |
| 2026-05-08 09:32 | 47.04034 | 5.54391 | 37742 ft | 426 kts | 328° |
| 2026-05-08 09:32 | 47.06644 | 5.52316 | 37343 ft | 424 kts | 328° |
| 2026-05-08 09:32 | 47.09238 | 5.50249 | 36824 ft | 427 kts | 328° |
| 2026-05-08 09:33 | 47.11843 | 5.48167 | 36334 ft | 427 kts | 328° |
| 2026-05-08 09:33 | 47.14426 | 5.46101 | 35883 ft | 427 kts | 328° |
| 2026-05-08 09:33 | 47.17026 | 5.44019 | 35406 ft | 427 kts | 328° |
| 2026-05-08 09:33 | 47.19635 | 5.41927 | 34930 ft | 427 kts | 328° |
| 2026-05-08 09:34 | 47.22236 | 5.39841 | 34458 ft | 427 kts | 328° |
| 2026-05-08 09:34 | 47.24833 | 5.37755 | 33980 ft | 427 kts | 328° |
| 2026-05-08 09:34 | 47.27443 | 5.35656 | 33496 ft | 427 kts | 328° |
| 2026-05-08 09:34 | 47.30043 | 5.33562 | 32975 ft | 427 kts | 328° |
| 2026-05-08 09:35 | 47.32611 | 5.31469 | 32421 ft | 423 kts | 326° |
| 2026-05-08 09:35 | 47.35022 | 5.29137 | 32252 ft | 405 kts | 320° |
| 2026-05-08 09:35 | 47.37207 | 5.26590 | 32103 ft | 391 kts | 316° |
| 2026-05-08 09:36 | 47.41286 | 5.21340 | 32103 ft | 396 kts | 315° |
| 2026-05-08 09:36 | 47.45438 | 5.16044 | 32028 ft | 392 kts | 316° |
| 2026-05-08 09:37 | 47.49642 | 5.10847 | 32056 ft | 403 kts | 317° |
| 2026-05-08 09:37 | 47.54042 | 5.05489 | 32055 ft | 411 kts | 317° |
| 2026-05-08 09:38 | 47.58423 | 5.00188 | 32056 ft | 409 kts | 317° |
| 2026-05-08 09:38 | 47.62830 | 4.94849 | 32055 ft | 409 kts | 317° |
| 2026-05-08 09:39 | 47.67234 | 4.89500 | 32052 ft | 409 kts | 317° |
| 2026-05-08 09:39 | 47.71626 | 4.84152 | 32050 ft | 409 kts | 317° |
| 2026-05-08 09:40 | 47.75989 | 4.78827 | 32051 ft | 408 kts | 317° |
| 2026-05-08 09:40 | 47.80356 | 4.73484 | 32058 ft | 408 kts | 317° |
| 2026-05-08 09:41 | 47.84737 | 4.68111 | 32062 ft | 408 kts | 317° |
| 2026-05-08 09:41 | 47.89098 | 4.62751 | 32063 ft | 408 kts | 317° |
| 2026-05-08 09:42 | 47.93474 | 4.57360 | 32064 ft | 407 kts | 317° |
| 2026-05-08 09:42 | 47.97844 | 4.51964 | 32066 ft | 408 kts | 317° |
| 2026-05-08 09:43 | 48.02198 | 4.46576 | 32067 ft | 408 kts | 317° |
| 2026-05-08 09:43 | 48.06543 | 4.41186 | 32068 ft | 408 kts | 317° |
| 2026-05-08 09:44 | 48.10892 | 4.35780 | 32069 ft | 408 kts | 317° |
| 2026-05-08 09:44 | 48.15251 | 4.30349 | 32070 ft | 407 kts | 317° |
| 2026-05-08 09:45 | 48.19612 | 4.24903 | 32069 ft | 407 kts | 317° |
| 2026-05-08 09:45 | 48.23953 | 4.19469 | 32071 ft | 407 kts | 317° |
| 2026-05-08 09:46 | 48.28307 | 4.14007 | 32073 ft | 407 kts | 317° |
| 2026-05-08 09:46 | 48.32635 | 4.08565 | 32074 ft | 407 kts | 317° |
| 2026-05-08 09:47 | 48.36953 | 4.03123 | 32075 ft | 407 kts | 317° |
| 2026-05-08 09:47 | 48.41279 | 3.97660 | 31954 ft | 404 kts | 317° |
| 2026-05-08 09:47 | 48.43403 | 3.94976 | 31733 ft | 395 kts | 317° |
| 2026-05-08 09:48 | 48.45493 | 3.92334 | 31509 ft | 388 kts | 317° |
| 2026-05-08 09:48 | 48.47529 | 3.89754 | 31288 ft | 384 kts | 317° |
| 2026-05-08 09:48 | 48.49574 | 3.87157 | 31066 ft | 385 kts | 317° |
| 2026-05-08 09:48 | 48.51614 | 3.84560 | 30833 ft | 386 kts | 317° |
| 2026-05-08 09:49 | 48.53666 | 3.81948 | 30575 ft | 384 kts | 317° |
| 2026-05-08 09:49 | 48.55682 | 3.79379 | 30299 ft | 379 kts | 317° |
| 2026-05-08 09:49 | 48.57676 | 3.76838 | 29914 ft | 376 kts | 317° |
| 2026-05-08 09:49 | 48.59663 | 3.74302 | 29465 ft | 375 kts | 316° |
| 2026-05-08 09:50 | 48.61649 | 3.71763 | 28993 ft | 372 kts | 316° |
| 2026-05-08 09:50 | 48.63605 | 3.69261 | 28551 ft | 369 kts | 316° |
| 2026-05-08 09:50 | 48.65546 | 3.66777 | 28117 ft | 366 kts | 316° |
| 2026-05-08 09:50 | 48.67490 | 3.64286 | 27677 ft | 362 kts | 316° |
| 2026-05-08 09:51 | 48.69388 | 3.61850 | 27240 ft | 358 kts | 316° |
| 2026-05-08 09:51 | 48.71275 | 3.59427 | 26812 ft | 354 kts | 316° |
| 2026-05-08 09:51 | 48.73119 | 3.57056 | 26397 ft | 351 kts | 316° |
| 2026-05-08 09:51 | 48.75010 | 3.54619 | 25979 ft | 357 kts | 316° |
| 2026-05-08 09:52 | 48.76897 | 3.52184 | 25537 ft | 357 kts | 316° |
| 2026-05-08 09:52 | 48.78771 | 3.49767 | 25108 ft | 353 kts | 316° |
| 2026-05-08 09:52 | 48.80606 | 3.47400 | 24687 ft | 349 kts | 316° |
| 2026-05-08 09:52 | 48.82444 | 3.45027 | 24266 ft | 344 kts | 316° |
| 2026-05-08 09:53 | 48.84262 | 3.42677 | 23848 ft | 341 kts | 316° |
| 2026-05-08 09:53 | 48.86037 | 3.40379 | 23440 ft | 337 kts | 316° |
| 2026-05-08 09:53 | 48.87815 | 3.38074 | 23032 ft | 336 kts | 316° |
| 2026-05-08 09:53 | 48.89615 | 3.35735 | 22618 ft | 342 kts | 316° |
| 2026-05-08 09:54 | 48.91418 | 3.33391 | 22202 ft | 340 kts | 316° |
| 2026-05-08 09:54 | 48.93209 | 3.31063 | 21787 ft | 337 kts | 316° |
| 2026-05-08 09:54 | 48.94965 | 3.28779 | 21379 ft | 334 kts | 316° |
| 2026-05-08 09:54 | 48.96720 | 3.26496 | 20967 ft | 331 kts | 316° |
| 2026-05-08 09:55 | 48.98470 | 3.24216 | 20554 ft | 328 kts | 316° |
| 2026-05-08 09:55 | 49.00200 | 3.21958 | 20148 ft | 326 kts | 316° |
| 2026-05-08 09:55 | 49.01903 | 3.19734 | 19746 ft | 323 kts | 316° |
| 2026-05-08 09:55 | 49.03583 | 3.17538 | 19348 ft | 320 kts | 316° |
| 2026-05-08 09:56 | 49.05259 | 3.15345 | 18952 ft | 318 kts | 316° |
| 2026-05-08 09:56 | 49.06929 | 3.13157 | 18556 ft | 315 kts | 316° |
| 2026-05-08 09:56 | 49.08590 | 3.10978 | 18159 ft | 313 kts | 316° |
| 2026-05-08 09:56 | 49.10220 | 3.08837 | 17772 ft | 312 kts | 316° |
| 2026-05-08 09:57 | 49.13542 | 3.04467 | 16975 ft | 316 kts | 316° |
| 2026-05-08 09:57 | 49.15192 | 3.02296 | 16582 ft | 314 kts | 316° |
| 2026-05-08 09:57 | 49.16827 | 3.00145 | 16189 ft | 311 kts | 316° |
| 2026-05-08 09:58 | 49.18458 | 2.97997 | 15798 ft | 309 kts | 316° |
| 2026-05-08 09:58 | 49.20092 | 2.95842 | 15406 ft | 306 kts | 316° |
| 2026-05-08 09:58 | 49.21677 | 2.93749 | 15023 ft | 304 kts | 316° |
| 2026-05-08 09:58 | 49.23266 | 2.91649 | 14640 ft | 302 kts | 317° |
| 2026-05-08 09:59 | 49.24841 | 2.89565 | 14259 ft | 299 kts | 317° |
| 2026-05-08 09:59 | 49.26424 | 2.87469 | 13879 ft | 297 kts | 317° |
| 2026-05-08 09:59 | 49.27963 | 2.85429 | 13511 ft | 295 kts | 317° |
| 2026-05-08 09:59 | 49.29522 | 2.83363 | 13134 ft | 293 kts | 317° |
| 2026-05-08 10:00 | 49.31045 | 2.81340 | 12766 ft | 291 kts | 317° |
| 2026-05-08 10:00 | 49.32566 | 2.79319 | 12397 ft | 289 kts | 317° |
| 2026-05-08 10:00 | 49.34064 | 2.77328 | 12034 ft | 287 kts | 317° |
| 2026-05-08 10:00 | 49.35580 | 2.75310 | 11667 ft | 285 kts | 317° |
| 2026-05-08 10:01 | 49.37051 | 2.73350 | 11308 ft | 284 kts | 317° |
| 2026-05-08 10:01 | 49.38540 | 2.71366 | 10947 ft | 282 kts | 317° |
| 2026-05-08 10:01 | 49.40023 | 2.69386 | 10585 ft | 280 kts | 317° |
| 2026-05-08 10:01 | 49.41486 | 2.67434 | 10227 ft | 279 kts | 317° |
| 2026-05-08 10:02 | 49.42944 | 2.65485 | 9795 ft | 278 kts | 317° |
| 2026-05-08 10:02 | 49.44379 | 2.63564 | 9318 ft | 278 kts | 318° |
| 2026-05-08 10:02 | 49.45840 | 2.61609 | 8892 ft | 279 kts | 318° |
| 2026-05-08 10:02 | 49.47296 | 2.59658 | 8542 ft | 277 kts | 319° |
| 2026-05-08 10:03 | 49.48739 | 2.57724 | 8194 ft | 275 kts | 319° |
| 2026-05-08 10:03 | 49.50178 | 2.55793 | 7848 ft | 274 kts | 319° |
| 2026-05-08 10:03 | 49.51597 | 2.53889 | 7508 ft | 272 kts | 319° |
| 2026-05-08 10:03 | 49.53017 | 2.51979 | 7179 ft | 270 kts | 319° |
| 2026-05-08 10:04 | 49.54393 | 2.50073 | 6966 ft | 265 kts | 315° |
| 2026-05-08 10:04 | 49.55490 | 2.47859 | 6827 ft | 255 kts | 295° |
| 2026-05-08 10:04 | 49.56022 | 2.45308 | 6711 ft | 246 kts | 283° |
| 2026-05-08 10:04 | 49.56392 | 2.42761 | 6588 ft | 245 kts | 283° |
| 2026-05-08 10:05 | 49.56757 | 2.40225 | 6465 ft | 245 kts | 283° |
| 2026-05-08 10:05 | 49.57132 | 2.37640 | 6338 ft | 244 kts | 283° |
| 2026-05-08 10:05 | 49.57502 | 2.35105 | 6213 ft | 244 kts | 283° |
| 2026-05-08 10:05 | 49.57872 | 2.32567 | 6087 ft | 243 kts | 282° |
| 2026-05-08 10:06 | 49.58241 | 2.30030 | 5962 ft | 243 kts | 282° |
| 2026-05-08 10:06 | 49.58608 | 2.27501 | 5837 ft | 242 kts | 282° |
| 2026-05-08 10:06 | 49.58974 | 2.24972 | 5711 ft | 242 kts | 282° |
| 2026-05-08 10:06 | 49.59341 | 2.22431 | 5585 ft | 241 kts | 282° |
| 2026-05-08 10:07 | 49.59705 | 2.19916 | 5461 ft | 241 kts | 282° |
| 2026-05-08 10:07 | 49.60067 | 2.17405 | 5337 ft | 240 kts | 282° |
| 2026-05-08 10:07 | 49.60430 | 2.14881 | 5212 ft | 240 kts | 282° |
| 2026-05-08 10:07 | 49.60790 | 2.12373 | 5087 ft | 240 kts | 282° |
| 2026-05-08 10:08 | 49.61147 | 2.09886 | 4963 ft | 239 kts | 282° |
| 2026-05-08 10:08 | 49.61503 | 2.07398 | 4840 ft | 239 kts | 282° |
| 2026-05-08 10:08 | 49.61863 | 2.04888 | 4714 ft | 238 kts | 282° |
| 2026-05-08 10:08 | 49.62221 | 2.02397 | 4589 ft | 238 kts | 282° |
| 2026-05-08 10:09 | 49.62579 | 1.99905 | 4441 ft | 238 kts | 282° |
| 2026-05-08 10:09 | 49.62928 | 1.97435 | 4187 ft | 238 kts | 281° |
| 2026-05-08 10:09 | 49.63078 | 1.94918 | 3929 ft | 235 kts | 264° |
| 2026-05-08 10:09 | 49.62504 | 1.92642 | 3748 ft | 228 kts | 227° |
| 2026-05-08 10:10 | 49.61242 | 1.91310 | 3641 ft | 217 kts | 198° |
| 2026-05-08 10:10 | 49.59801 | 1.90751 | 3508 ft | 209 kts | 192° |
| 2026-05-08 10:10 | 49.58425 | 1.90233 | 3385 ft | 202 kts | 194° |
| 2026-05-08 10:10 | 49.57099 | 1.89693 | 3305 ft | 191 kts | 194° |
| 2026-05-08 10:11 | 49.55827 | 1.89326 | 3185 ft | 180 kts | 179° |
| 2026-05-08 10:11 | 49.54673 | 1.89900 | 3080 ft | 176 kts | 137° |
| 2026-05-08 10:11 | 49.53975 | 1.91423 | 2987 ft | 175 kts | 115° |
| 2026-05-08 10:11 | 49.53385 | 1.93038 | 2879 ft | 174 kts | 122° |
| 2026-05-08 10:12 | 49.52699 | 1.94583 | 2776 ft | 174 kts | 124° |
| 2026-05-08 10:12 | 49.52018 | 1.96118 | 2647 ft | 175 kts | 122° |
| 2026-05-08 10:12 | 49.51345 | 1.97689 | 2382 ft | 176 kts | 122° |
| 2026-05-08 10:12 | 49.50674 | 1.99241 | 2139 ft | 174 kts | 122° |
| 2026-05-08 10:13 | 49.50016 | 2.00757 | 1920 ft | 163 kts | 122° |
| 2026-05-08 10:13 | 49.49404 | 2.02168 | 1713 ft | 155 kts | 122° |
| 2026-05-08 10:13 | 49.48810 | 2.03539 | 1443 ft | 151 kts | 122° |
| 2026-05-08 10:13 | 49.48228 | 2.04878 | 1251 ft | 149 kts | 122° |
| 2026-05-08 10:14 | 49.47654 | 2.06203 | 1046 ft | 150 kts | 122° |
| 2026-05-08 10:14 | 49.47075 | 2.07534 | 841 ft | 150 kts | 122° |
| 2026-05-08 10:14 | 49.46490 | 2.08880 | 637 ft | 150 kts | 122° |
| 2026-05-08 10:14 | 49.45906 | 2.10217 | 427 ft | 151 kts | 122° |
| 2026-05-08 10:15 | 49.45345 | 2.11505 | 333 ft | 125 kts | 124° |
| 2026-05-08 10:15 | 49.44986 | 2.12333 | 320 ft | 64 kts | 124° |
| 2026-05-08 10:15 | 49.44794 | 2.12773 | 307 ft | 36 kts | 123° |
| 2026-05-08 10:15 | 49.44681 | 2.13039 | 301 ft | 17 kts | 112° |
| 2026-05-08 10:16 | 49.44657 | 2.13119 | 300 ft | 8 kts | 262° |
| 2026-05-08 10:16 | 49.44696 | 2.13001 | 301 ft | 19 kts | 305° |
| 2026-05-08 10:16 | 49.44790 | 2.12783 | 307 ft | 29 kts | 304° |
| 2026-05-08 10:16 | 49.44897 | 2.12539 | 314 ft | 25 kts | 303° |
| 2026-05-08 10:17 | 49.44997 | 2.12310 | 320 ft | 27 kts | 304° |
| 2026-05-08 10:17 | 49.45110 | 2.12045 | 322 ft | 31 kts | 303° |
| 2026-05-08 10:17 | 49.45236 | 2.11758 | 329 ft | 28 kts | 304° |
| 2026-05-08 10:17 | 49.45341 | 2.11515 | 333 ft | 26 kts | 303° |
| 2026-05-08 10:18 | 49.45425 | 2.11330 | 338 ft | 10 kts | 321° |
| 2026-05-08 10:18 | 49.45484 | 2.11342 | 339 ft | 8 kts | 35° |
| 2026-05-08 10:18 | 49.45539 | 2.11412 | 339 ft | 12 kts | 41° |
| 2026-05-08 10:18 | 49.45611 | 2.11510 | 341 ft | 13 kts | 41° |
| 2026-05-08 10:19 | 49.45675 | 2.11596 | 343 ft | 10 kts | 41° |
| 2026-05-08 10:19 | 49.45737 | 2.11597 | 346 ft | 10 kts | 322° |
| 2026-05-08 10:19 | 49.45784 | 2.11523 | 348 ft | 8 kts | 314° |
| 2026-05-08 10:20 | 49.45901 | 2.11588 | 354 ft | 8 kts | 41° |
| 2026-05-08 10:20 | 49.45941 | 2.11620 | 355 ft | 5 kts | 347° |
| 2026-05-08 10:20 | 49.45969 | 2.11588 | 355 ft | 3 kts | 312° |
| 2026-05-08 10:20 | 49.45980 | 2.11571 | 356 ft | 1 kts | 312° |
| 2026-05-08 10:21 | 49.45984 | 2.11563 | 356 ft | 2 kts | 312° |
| 2026-05-08 10:21 | 49.45985 | 2.11561 | 356 ft | 0 kts | 312° |